sensor_id;sensor_type;location;lat;lon;timestamp;noise_LAeq;noise_LA_min;noise_LA_max;noise_LA01;noise_LA95
51665;Laerm;37751;52.408;12.536;2024-02-21T00:01:32;46.89;30.21;63.04;;
51665;Laerm;37751;52.408;12.536;2024-02-21T00:04:04;45.96;29.28;64.17;;
51665;Laerm;37751;52.408;12.536;2024-02-21T00:06:35;40.75;29.50;59.96;;
51665;Laerm;37751;52.408;12.536;2024-02-21T00:09:10;51.25;29.09;70.54;;
51665;Laerm;37751;52.408;12.536;2024-02-21T00:11:42;47.50;29.44;64.36;;
51665;Laerm;37751;52.408;12.536;2024-02-21T00:14:13;43.02;30.21;60.93;;
51665;Laerm;37751;52.408;12.536;2024-02-21T00:16:44;40.89;30.76;52.94;;
51665;Laerm;37751;52.408;12.536;2024-02-21T00:19:15;49.29;30.75;64.86;;
51665;Laerm;37751;52.408;12.536;2024-02-21T00:21:47;44.53;29.12;63.28;;
51665;Laerm;37751;52.408;12.536;2024-02-21T00:24:20;46.52;28.66;63.30;;
51665;Laerm;37751;52.408;12.536;2024-02-21T00:26:51;48.97;34.48;63.76;;
51665;Laerm;37751;52.408;12.536;2024-02-21T00:29:25;52.48;32.60;68.57;;
51665;Laerm;37751;52.408;12.536;2024-02-21T00:31:56;32.61;29.99;42.77;;
51665;Laerm;37751;52.408;12.536;2024-02-21T00:34:25;42.23;28.87;55.75;;
51665;Laerm;37751;52.408;12.536;2024-02-21T00:36:57;51.66;30.90;66.56;;
51665;Laerm;37751;52.408;12.536;2024-02-21T00:39:30;48.40;30.00;63.94;;
51665;Laerm;37751;52.408;12.536;2024-02-21T00:42:02;49.05;34.76;63.17;;
51665;Laerm;37751;52.408;12.536;2024-02-21T00:44:35;49.45;31.66;64.15;;
51665;Laerm;37751;52.408;12.536;2024-02-21T00:47:06;45.37;30.07;62.11;;
51665;Laerm;37751;52.408;12.536;2024-02-21T00:49:37;48.76;34.92;62.49;;
51665;Laerm;37751;52.408;12.536;2024-02-21T00:52:09;42.15;31.23;59.84;;
51665;Laerm;37751;52.408;12.536;2024-02-21T00:54:43;47.75;32.22;63.99;;
51665;Laerm;37751;52.408;12.536;2024-02-21T00:57:21;45.48;32.70;57.96;;
51665;Laerm;37751;52.408;12.536;2024-02-21T00:59:52;45.57;31.61;62.92;;
51665;Laerm;37751;52.408;12.536;2024-02-21T01:02:23;49.65;32.24;68.31;;
51665;Laerm;37751;52.408;12.536;2024-02-21T01:04:54;44.73;30.89;65.56;;
51665;Laerm;37751;52.408;12.536;2024-02-21T01:07:25;42.49;31.37;56.30;;
51665;Laerm;37751;52.408;12.536;2024-02-21T01:09:59;47.46;30.63;66.28;;
51665;Laerm;37751;52.408;12.536;2024-02-21T01:12:30;53.25;30.86;70.47;;
51665;Laerm;37751;52.408;12.536;2024-02-21T01:15:02;45.96;32.94;65.12;;
51665;Laerm;37751;52.408;12.536;2024-02-21T01:17:34;50.45;30.90;65.10;;
51665;Laerm;37751;52.408;12.536;2024-02-21T01:20:07;42.18;30.45;58.99;;
51665;Laerm;37751;52.408;12.536;2024-02-21T01:22:38;34.36;30.55;43.51;;
51665;Laerm;37751;52.408;12.536;2024-02-21T01:25:12;47.21;32.75;62.86;;
51665;Laerm;37751;52.408;12.536;2024-02-21T01:27:44;45.37;35.24;65.59;;
51665;Laerm;37751;52.408;12.536;2024-02-21T01:30:15;54.28;34.38;69.85;;
51665;Laerm;37751;52.408;12.536;2024-02-21T01:32:46;50.62;35.03;65.23;;
51665;Laerm;37751;52.408;12.536;2024-02-21T01:35:17;45.21;31.73;61.47;;
51665;Laerm;37751;52.408;12.536;2024-02-21T01:37:51;43.15;30.77;60.64;;
51665;Laerm;37751;52.408;12.536;2024-02-21T01:40:25;45.41;32.54;61.52;;
51665;Laerm;37751;52.408;12.536;2024-02-21T01:42:57;55.06;33.14;70.98;;
51665;Laerm;37751;52.408;12.536;2024-02-21T01:45:27;52.72;39.70;70.24;;
51665;Laerm;37751;52.408;12.536;2024-02-21T01:47:58;45.23;37.43;63.52;;
51665;Laerm;37751;52.408;12.536;2024-02-21T01:50:30;47.08;33.32;60.09;;
51665;Laerm;37751;52.408;12.536;2024-02-21T01:53:01;41.78;32.89;52.51;;
51665;Laerm;37751;52.408;12.536;2024-02-21T01:55:35;47.11;31.99;63.94;;
51665;Laerm;37751;52.408;12.536;2024-02-21T01:58:09;43.55;31.62;54.54;;
51665;Laerm;37751;52.408;12.536;2024-02-21T02:00:42;51.87;37.61;65.24;;
51665;Laerm;37751;52.408;12.536;2024-02-21T02:03:14;40.62;33.55;51.39;;
51665;Laerm;37751;52.408;12.536;2024-02-21T02:05:46;54.55;39.59;67.87;;
51665;Laerm;37751;52.408;12.536;2024-02-21T02:08:19;54.13;35.22;72.74;;
51665;Laerm;37751;52.408;12.536;2024-02-21T02:10:53;51.00;38.47;66.35;;
51665;Laerm;37751;52.408;12.536;2024-02-21T02:13:25;54.05;38.50;70.12;;
51665;Laerm;37751;52.408;12.536;2024-02-21T02:15:56;56.37;35.30;72.79;;
51665;Laerm;37751;52.408;12.536;2024-02-21T02:18:27;53.13;40.02;72.14;;
51665;Laerm;37751;52.408;12.536;2024-02-21T02:20:59;55.03;38.72;69.93;;
51665;Laerm;37751;52.408;12.536;2024-02-21T02:23:34;54.84;37.84;74.55;;
51665;Laerm;37751;52.408;12.536;2024-02-21T02:26:04;57.17;36.64;71.99;;
51665;Laerm;37751;52.408;12.536;2024-02-21T02:28:36;48.92;34.81;65.99;;
51665;Laerm;37751;52.408;12.536;2024-02-21T02:31:07;51.60;35.75;67.11;;
51665;Laerm;37751;52.408;12.536;2024-02-21T02:33:38;58.48;41.69;71.01;;
51665;Laerm;37751;52.408;12.536;2024-02-21T02:36:09;50.70;37.50;68.97;;
51665;Laerm;37751;52.408;12.536;2024-02-21T02:38:43;53.49;39.97;67.93;;
51665;Laerm;37751;52.408;12.536;2024-02-21T02:41:14;51.83;38.01;67.87;;
51665;Laerm;37751;52.408;12.536;2024-02-21T02:43:46;53.93;40.62;68.31;;
51665;Laerm;37751;52.408;12.536;2024-02-21T02:46:17;52.55;37.84;64.79;;
51665;Laerm;37751;52.408;12.536;2024-02-21T02:48:49;56.86;42.29;71.87;;
51665;Laerm;37751;52.408;12.536;2024-02-21T02:51:21;55.38;36.97;70.29;;
51665;Laerm;37751;52.408;12.536;2024-02-21T02:53:54;56.78;36.56;74.26;;
51665;Laerm;37751;52.408;12.536;2024-02-21T02:56:25;56.66;44.56;70.18;;
51665;Laerm;37751;52.408;12.536;2024-02-21T02:58:57;58.42;45.78;69.11;;
51665;Laerm;37751;52.408;12.536;2024-02-21T03:01:28;59.69;39.25;72.93;;
51665;Laerm;37751;52.408;12.536;2024-02-21T03:03:59;53.13;34.98;68.06;;
51665;Laerm;37751;52.408;12.536;2024-02-21T03:06:32;56.61;38.01;68.24;;
51665;Laerm;37751;52.408;12.536;2024-02-21T03:09:06;57.20;38.09;68.29;;
51665;Laerm;37751;52.408;12.536;2024-02-21T03:11:38;57.96;41.45;72.15;;
51665;Laerm;37751;52.408;12.536;2024-02-21T03:14:11;58.88;44.19;73.73;;
51665;Laerm;37751;52.408;12.536;2024-02-21T03:16:42;59.27;41.02;72.31;;
51665;Laerm;37751;52.408;12.536;2024-02-21T03:19:13;56.63;38.94;70.51;;
51665;Laerm;37751;52.408;12.536;2024-02-21T03:21:44;56.98;39.65;69.07;;
51665;Laerm;37751;52.408;12.536;2024-02-21T03:24:19;55.36;44.83;67.50;;
51665;Laerm;37751;52.408;12.536;2024-02-21T03:26:51;60.13;47.24;75.68;;
51665;Laerm;37751;52.408;12.536;2024-02-21T03:29:22;57.29;45.66;69.99;;
51665;Laerm;37751;52.408;12.536;2024-02-21T03:31:53;58.61;41.39;71.38;;
51665;Laerm;37751;52.408;12.536;2024-02-21T03:34:24;58.00;43.99;69.48;;
51665;Laerm;37751;52.408;12.536;2024-02-21T03:36:55;60.56;42.17;69.99;;
51665;Laerm;37751;52.408;12.536;2024-02-21T03:39:31;59.72;49.97;66.47;;
51665;Laerm;37751;52.408;12.536;2024-02-21T03:42:03;61.22;51.61;69.51;;
51665;Laerm;37751;52.408;12.536;2024-02-21T03:44:35;58.68;45.41;72.78;;
51665;Laerm;37751;52.408;12.536;2024-02-21T03:47:06;60.15;46.92;70.35;;
51665;Laerm;37751;52.408;12.536;2024-02-21T03:49:39;59.43;45.75;72.87;;
51665;Laerm;37751;52.408;12.536;2024-02-21T03:52:10;59.89;51.89;68.30;;
51665;Laerm;37751;52.408;12.536;2024-02-21T03:54:44;57.44;42.73;69.29;;
51665;Laerm;37751;52.408;12.536;2024-02-21T03:57:16;57.73;45.74;70.16;;
51665;Laerm;37751;52.408;12.536;2024-02-21T03:59:49;60.34;48.49;70.31;;
51665;Laerm;37751;52.408;12.536;2024-02-21T04:02:20;63.37;51.58;73.34;;
51665;Laerm;37751;52.408;12.536;2024-02-21T04:04:51;61.31;48.25;72.71;;
51665;Laerm;37751;52.408;12.536;2024-02-21T04:07:22;57.66;45.94;68.18;;
51665;Laerm;37751;52.408;12.536;2024-02-21T04:09:56;59.70;45.57;72.17;;
51665;Laerm;37751;52.408;12.536;2024-02-21T04:12:27;60.17;49.25;72.33;;
51665;Laerm;37751;52.408;12.536;2024-02-21T04:14:58;59.38;47.91;69.13;;
51665;Laerm;37751;52.408;12.536;2024-02-21T04:17:29;60.77;51.28;70.46;;
51665;Laerm;37751;52.408;12.536;2024-02-21T04:20:04;61.36;49.30;70.32;;
51665;Laerm;37751;52.408;12.536;2024-02-21T04:22:38;60.49;47.71;74.58;;
51665;Laerm;37751;52.408;12.536;2024-02-21T04:25:12;59.86;50.10;67.40;;
51665;Laerm;37751;52.408;12.536;2024-02-21T04:27:43;59.90;48.12;69.20;;
51665;Laerm;37751;52.408;12.536;2024-02-21T04:30:15;60.95;49.21;72.29;;
51665;Laerm;37751;52.408;12.536;2024-02-21T04:32:46;61.10;51.67;72.98;;
51665;Laerm;37751;52.408;12.536;2024-02-21T04:35:18;60.40;45.95;69.24;;
51665;Laerm;37751;52.408;12.536;2024-02-21T04:37:49;63.17;46.33;77.24;;
51665;Laerm;37751;52.408;12.536;2024-02-21T04:40:23;61.65;48.64;73.88;;
51665;Laerm;37751;52.408;12.536;2024-02-21T04:42:55;61.22;48.92;73.21;;
51665;Laerm;37751;52.408;12.536;2024-02-21T04:45:27;59.79;47.81;69.44;;
51665;Laerm;37751;52.408;12.536;2024-02-21T04:47:58;60.11;45.47;69.32;;
51665;Laerm;37751;52.408;12.536;2024-02-21T04:50:29;61.50;51.44;72.39;;
51665;Laerm;37751;52.408;12.536;2024-02-21T04:53:01;60.10;44.24;68.55;;
51665;Laerm;37751;52.408;12.536;2024-02-21T04:55:35;61.19;45.71;72.66;;
51665;Laerm;37751;52.408;12.536;2024-02-21T04:58:06;62.45;49.89;70.51;;
51665;Laerm;37751;52.408;12.536;2024-02-21T05:00:37;59.72;45.52;72.57;;
51665;Laerm;37751;52.408;12.536;2024-02-21T05:03:08;61.82;49.16;69.91;;
51665;Laerm;37751;52.408;12.536;2024-02-21T05:05:39;60.37;44.24;69.25;;
51665;Laerm;37751;52.408;12.536;2024-02-21T05:08:11;60.83;46.61;71.32;;
51665;Laerm;37751;52.408;12.536;2024-02-21T05:10:45;59.91;50.24;68.91;;
51665;Laerm;37751;52.408;12.536;2024-02-21T05:13:17;60.99;50.60;68.91;;
51665;Laerm;37751;52.408;12.536;2024-02-21T05:15:50;59.15;48.49;68.26;;
51665;Laerm;37751;52.408;12.536;2024-02-21T05:18:21;59.80;46.70;69.57;;
51665;Laerm;37751;52.408;12.536;2024-02-21T05:20:52;61.18;49.15;71.12;;
51665;Laerm;37751;52.408;12.536;2024-02-21T05:23:23;60.64;49.72;68.51;;
51665;Laerm;37751;52.408;12.536;2024-02-21T05:25:57;61.37;47.12;69.59;;
51665;Laerm;37751;52.408;12.536;2024-02-21T05:28:28;62.00;49.36;69.79;;
51665;Laerm;37751;52.408;12.536;2024-02-21T05:31:00;62.12;48.53;70.95;;
51665;Laerm;37751;52.408;12.536;2024-02-21T05:33:31;61.59;50.49;72.28;;
51665;Laerm;37751;52.408;12.536;2024-02-21T05:36:03;62.47;52.12;73.03;;
51665;Laerm;37751;52.408;12.536;2024-02-21T05:38:34;70.49;52.42;93.18;;
51665;Laerm;37751;52.408;12.536;2024-02-21T05:41:08;61.95;51.88;74.68;;
51665;Laerm;37751;52.408;12.536;2024-02-21T05:43:40;62.01;51.15;69.69;;
51665;Laerm;37751;52.408;12.536;2024-02-21T05:46:12;60.50;50.64;67.23;;
51665;Laerm;37751;52.408;12.536;2024-02-21T05:48:43;61.61;49.75;72.02;;
51665;Laerm;37751;52.408;12.536;2024-02-21T05:51:14;62.40;52.95;71.45;;
51665;Laerm;37751;52.408;12.536;2024-02-21T05:53:45;60.43;48.61;68.85;;
51665;Laerm;37751;52.408;12.536;2024-02-21T05:56:19;61.44;49.30;75.19;;
51665;Laerm;37751;52.408;12.536;2024-02-21T05:58:50;62.33;53.32;71.60;;
51665;Laerm;37751;52.408;12.536;2024-02-21T06:01:22;61.92;49.73;71.57;;
51665;Laerm;37751;52.408;12.536;2024-02-21T06:03:53;60.36;47.34;71.12;;
51665;Laerm;37751;52.408;12.536;2024-02-21T06:06:25;59.90;49.75;67.11;;
51665;Laerm;37751;52.408;12.536;2024-02-21T06:08:56;62.18;51.99;69.67;;
51665;Laerm;37751;52.408;12.536;2024-02-21T06:11:30;61.42;53.40;68.55;;
51665;Laerm;37751;52.408;12.536;2024-02-21T06:14:06;60.47;49.90;68.09;;
51665;Laerm;37751;52.408;12.536;2024-02-21T06:16:37;60.88;52.28;67.43;;
51665;Laerm;37751;52.408;12.536;2024-02-21T06:19:09;60.93;51.90;68.59;;
51665;Laerm;37751;52.408;12.536;2024-02-21T06:21:45;61.73;50.87;71.78;;
51665;Laerm;37751;52.408;12.536;2024-02-21T06:24:16;60.90;49.15;73.16;;
51665;Laerm;37751;52.408;12.536;2024-02-21T06:26:51;61.83;54.48;68.91;;
51665;Laerm;37751;52.408;12.536;2024-02-21T06:29:22;61.88;48.39;72.07;;
51665;Laerm;37751;52.408;12.536;2024-02-21T06:31:54;61.39;52.69;67.51;;
51665;Laerm;37751;52.408;12.536;2024-02-21T06:34:25;61.05;49.76;69.50;;
51665;Laerm;37751;52.408;12.536;2024-02-21T06:37:01;64.65;52.83;79.69;;
51665;Laerm;37751;52.408;12.536;2024-02-21T06:39:32;62.50;54.23;70.13;;
51665;Laerm;37751;52.408;12.536;2024-02-21T06:42:08;60.43;48.81;73.51;;
51665;Laerm;37751;52.408;12.536;2024-02-21T06:44:42;62.90;50.52;74.66;;
51665;Laerm;37751;52.408;12.536;2024-02-21T06:47:15;62.57;51.75;68.49;;
51665;Laerm;37751;52.408;12.536;2024-02-21T06:49:49;62.73;50.18;73.46;;
51665;Laerm;37751;52.408;12.536;2024-02-21T06:52:21;60.93;50.00;67.98;;
51665;Laerm;37751;52.408;12.536;2024-02-21T06:54:52;61.15;52.06;67.61;;
51665;Laerm;37751;52.408;12.536;2024-02-21T06:57:26;61.80;50.94;70.89;;
51665;Laerm;37751;52.408;12.536;2024-02-21T06:59:57;68.70;48.25;90.20;;
51665;Laerm;37751;52.408;12.536;2024-02-21T07:02:28;58.99;50.45;70.51;;
51665;Laerm;37751;52.408;12.536;2024-02-21T07:05:00;62.26;53.69;71.60;;
51665;Laerm;37751;52.408;12.536;2024-02-21T07:07:31;60.71;50.17;68.30;;
51665;Laerm;37751;52.408;12.536;2024-02-21T07:10:04;62.31;52.56;77.47;;
51665;Laerm;37751;52.408;12.536;2024-02-21T07:12:38;60.52;52.13;70.23;;
51665;Laerm;37751;52.408;12.536;2024-02-21T07:15:11;62.00;51.41;75.64;;
51665;Laerm;37751;52.408;12.536;2024-02-21T07:17:42;66.51;53.20;79.75;;
51665;Laerm;37751;52.408;12.536;2024-02-21T07:20:13;60.99;51.98;68.91;;
51665;Laerm;37751;52.408;12.536;2024-02-21T07:22:45;62.66;51.17;74.75;;
51665;Laerm;37751;52.408;12.536;2024-02-21T07:25:16;59.71;50.25;67.47;;
51665;Laerm;37751;52.408;12.536;2024-02-21T07:27:50;61.10;51.11;72.25;;
51665;Laerm;37751;52.408;12.536;2024-02-21T07:30:21;62.08;52.36;74.68;;
51665;Laerm;37751;52.408;12.536;2024-02-21T07:32:52;59.95;50.02;71.07;;
51665;Laerm;37751;52.408;12.536;2024-02-21T07:35:23;61.74;51.56;72.75;;
51665;Laerm;37751;52.408;12.536;2024-02-21T07:37:54;61.08;51.77;67.95;;
51665;Laerm;37751;52.408;12.536;2024-02-21T07:40:26;61.18;53.41;69.71;;
51665;Laerm;37751;52.408;12.536;2024-02-21T07:43:00;60.87;51.14;70.78;;
51665;Laerm;37751;52.408;12.536;2024-02-21T07:45:31;60.46;51.67;67.64;;
51665;Laerm;37751;52.408;12.536;2024-02-21T07:48:04;59.12;47.94;67.52;;
51665;Laerm;37751;52.408;12.536;2024-02-21T07:50:35;61.31;47.88;69.96;;
51665;Laerm;37751;52.408;12.536;2024-02-21T07:53:06;60.94;47.25;72.69;;
51665;Laerm;37751;52.408;12.536;2024-02-21T07:55:38;60.97;49.58;72.44;;
51665;Laerm;37751;52.408;12.536;2024-02-21T07:58:12;61.81;52.82;76.21;;
51665;Laerm;37751;52.408;12.536;2024-02-21T08:00:44;61.02;52.63;71.40;;
51665;Laerm;37751;52.408;12.536;2024-02-21T08:03:17;60.40;48.76;69.38;;
51665;Laerm;37751;52.408;12.536;2024-02-21T08:05:48;60.11;51.36;70.19;;
51665;Laerm;37751;52.408;12.536;2024-02-21T08:08:20;61.29;51.33;71.14;;
51665;Laerm;37751;52.408;12.536;2024-02-21T08:10:53;61.30;51.64;79.22;;
51665;Laerm;37751;52.408;12.536;2024-02-21T08:13:26;61.14;50.71;78.66;;
51665;Laerm;37751;52.408;12.536;2024-02-21T08:15:59;61.02;47.73;70.88;;
51665;Laerm;37751;52.408;12.536;2024-02-21T08:18:31;61.99;49.91;82.79;;
51665;Laerm;37751;52.408;12.536;2024-02-21T08:21:04;60.04;49.69;69.17;;
51665;Laerm;37751;52.408;12.536;2024-02-21T08:23:36;61.40;51.02;70.71;;
51665;Laerm;37751;52.408;12.536;2024-02-21T08:26:07;60.95;52.47;67.76;;
51665;Laerm;37751;52.408;12.536;2024-02-21T08:28:41;60.74;49.41;72.18;;
51665;Laerm;37751;52.408;12.536;2024-02-21T08:31:19;61.22;49.57;72.28;;
51665;Laerm;37751;52.408;12.536;2024-02-21T08:33:52;61.11;49.94;78.11;;
51665;Laerm;37751;52.408;12.536;2024-02-21T08:36:25;60.08;49.91;69.49;;
51665;Laerm;37751;52.408;12.536;2024-02-21T08:38:56;60.74;50.71;71.27;;
51665;Laerm;37751;52.408;12.536;2024-02-21T08:41:30;60.43;50.23;71.56;;
51665;Laerm;37751;52.408;12.536;2024-02-21T08:44:25;59.75;50.63;67.84;;
51665;Laerm;37751;52.408;12.536;2024-02-21T08:46:57;61.32;50.37;68.54;;
51665;Laerm;37751;52.408;12.536;2024-02-21T08:49:32;71.98;50.97;91.53;;
51665;Laerm;37751;52.408;12.536;2024-02-21T08:52:06;61.50;52.74;71.00;;
51665;Laerm;37751;52.408;12.536;2024-02-21T08:54:37;63.44;48.71;79.37;;
51665;Laerm;37751;52.408;12.536;2024-02-21T08:57:13;62.23;50.27;74.18;;
51665;Laerm;37751;52.408;12.536;2024-02-21T08:59:50;62.51;48.84;75.00;;
51665;Laerm;37751;52.408;12.536;2024-02-21T09:02:21;60.99;50.71;72.97;;
51665;Laerm;37751;52.408;12.536;2024-02-21T09:04:53;59.66;48.86;68.11;;
51665;Laerm;37751;52.408;12.536;2024-02-21T09:07:24;60.74;49.13;69.56;;
51665;Laerm;37751;52.408;12.536;2024-02-21T09:09:56;60.08;50.55;71.69;;
51665;Laerm;37751;52.408;12.536;2024-02-21T09:12:35;59.50;49.25;68.32;;
51665;Laerm;37751;52.408;12.536;2024-02-21T09:15:10;61.43;50.75;68.98;;
51665;Laerm;37751;52.408;12.536;2024-02-21T09:17:42;60.49;49.70;69.97;;
51665;Laerm;37751;52.408;12.536;2024-02-21T09:20:15;60.93;50.81;71.66;;
51665;Laerm;37751;52.408;12.536;2024-02-21T09:22:48;60.76;50.11;68.86;;
51665;Laerm;37751;52.408;12.536;2024-02-21T09:25:20;60.29;49.98;70.23;;
51665;Laerm;37751;52.408;12.536;2024-02-21T09:27:53;62.30;47.40;74.64;;
51665;Laerm;37751;52.408;12.536;2024-02-21T09:30:29;60.26;51.70;71.61;;
51665;Laerm;37751;52.408;12.536;2024-02-21T09:33:01;60.41;51.17;68.23;;
51665;Laerm;37751;52.408;12.536;2024-02-21T09:35:33;58.34;48.56;70.41;;
51665;Laerm;37751;52.408;12.536;2024-02-21T09:38:05;59.68;50.48;67.10;;
51665;Laerm;37751;52.408;12.536;2024-02-21T09:40:38;61.14;50.24;73.09;;
51665;Laerm;37751;52.408;12.536;2024-02-21T09:43:10;60.20;50.44;69.66;;
51665;Laerm;37751;52.408;12.536;2024-02-21T09:45:46;62.00;51.66;70.46;;
51665;Laerm;37751;52.408;12.536;2024-02-21T09:48:42;60.22;49.40;69.51;;
51665;Laerm;37751;52.408;12.536;2024-02-21T09:51:17;61.75;49.35;73.61;;
51665;Laerm;37751;52.408;12.536;2024-02-21T09:53:52;59.98;46.06;72.20;;
51665;Laerm;37751;52.408;12.536;2024-02-21T09:56:38;60.27;49.13;71.53;;
51665;Laerm;37751;52.408;12.536;2024-02-21T09:59:10;59.42;49.43;68.16;;
51665;Laerm;37751;52.408;12.536;2024-02-21T10:01:48;58.69;48.69;66.78;;
51665;Laerm;37751;52.408;12.536;2024-02-21T10:04:22;60.87;45.45;69.82;;
51665;Laerm;37751;52.408;12.536;2024-02-21T10:06:56;61.74;48.13;75.94;;
51665;Laerm;37751;52.408;12.536;2024-02-21T10:09:28;60.40;51.44;69.16;;
51665;Laerm;37751;52.408;12.536;2024-02-21T10:12:11;58.94;48.80;70.87;;
51665;Laerm;37751;52.408;12.536;2024-02-21T10:14:45;60.10;50.87;69.03;;
51665;Laerm;37751;52.408;12.536;2024-02-21T10:17:20;59.46;50.99;66.78;;
51665;Laerm;37751;52.408;12.536;2024-02-21T10:19:51;59.55;49.31;68.28;;
51665;Laerm;37751;52.408;12.536;2024-02-21T10:22:24;61.90;51.41;72.22;;
51665;Laerm;37751;52.408;12.536;2024-02-21T10:25:07;58.93;49.32;66.77;;
51665;Laerm;37751;52.408;12.536;2024-02-21T10:27:40;61.60;52.84;70.22;;
51665;Laerm;37751;52.408;12.536;2024-02-21T10:30:14;60.39;50.69;72.86;;
51665;Laerm;37751;52.408;12.536;2024-02-21T10:32:53;58.67;47.36;67.02;;
51665;Laerm;37751;52.408;12.536;2024-02-21T10:35:29;60.02;48.14;68.00;;
51665;Laerm;37751;52.408;12.536;2024-02-21T10:38:02;63.28;51.56;78.62;;
51665;Laerm;37751;52.408;12.536;2024-02-21T10:40:36;61.31;51.07;70.76;;
51665;Laerm;37751;52.408;12.536;2024-02-21T10:43:13;59.46;48.99;69.67;;
51665;Laerm;37751;52.408;12.536;2024-02-21T10:45:48;60.74;51.87;70.27;;
51665;Laerm;37751;52.408;12.536;2024-02-21T10:48:31;60.40;49.03;67.83;;
51665;Laerm;37751;52.408;12.536;2024-02-21T10:51:16;62.43;50.42;72.26;;
51665;Laerm;37751;52.408;12.536;2024-02-21T10:54:13;59.62;47.37;73.02;;
51665;Laerm;37751;52.408;12.536;2024-02-21T10:56:50;60.55;49.60;68.87;;
51665;Laerm;37751;52.408;12.536;2024-02-21T10:59:23;58.29;46.97;66.06;;
51665;Laerm;37751;52.408;12.536;2024-02-21T11:01:54;61.03;47.44;73.24;;
51665;Laerm;37751;52.408;12.536;2024-02-21T11:04:32;59.50;47.38;68.02;;
51665;Laerm;37751;52.408;12.536;2024-02-21T11:07:07;58.28;49.66;66.89;;
51665;Laerm;37751;52.408;12.536;2024-02-21T11:09:51;60.02;49.62;68.46;;
51665;Laerm;37751;52.408;12.536;2024-02-21T11:12:23;59.91;49.80;69.68;;
51665;Laerm;37751;52.408;12.536;2024-02-21T11:15:05;61.38;47.69;74.16;;
51665;Laerm;37751;52.408;12.536;2024-02-21T11:17:37;59.03;49.02;69.23;;
51665;Laerm;37751;52.408;12.536;2024-02-21T11:20:32;67.91;48.69;90.40;;
51665;Laerm;37751;52.408;12.536;2024-02-21T11:23:05;58.83;47.64;70.95;;
51665;Laerm;37751;52.408;12.536;2024-02-21T11:25:36;59.48;49.28;66.77;;
51665;Laerm;37751;52.408;12.536;2024-02-21T11:28:07;59.98;50.53;70.46;;
51665;Laerm;37751;52.408;12.536;2024-02-21T11:30:40;60.18;49.20;70.40;;
51665;Laerm;37751;52.408;12.536;2024-02-21T11:33:12;60.84;50.10;72.52;;
51665;Laerm;37751;52.408;12.536;2024-02-21T11:35:47;60.70;48.05;74.56;;
51665;Laerm;37751;52.408;12.536;2024-02-21T11:38:23;61.01;50.37;69.22;;
51665;Laerm;37751;52.408;12.536;2024-02-21T11:40:54;61.04;50.87;75.04;;
51665;Laerm;37751;52.408;12.536;2024-02-21T11:43:27;59.88;50.33;71.20;;
51665;Laerm;37751;52.408;12.536;2024-02-21T11:46:01;60.33;50.19;70.92;;
51665;Laerm;37751;52.408;12.536;2024-02-21T11:48:33;59.60;50.31;67.72;;
51665;Laerm;37751;52.408;12.536;2024-02-21T11:51:08;59.55;48.41;69.43;;
51665;Laerm;37751;52.408;12.536;2024-02-21T11:53:39;70.85;49.02;89.90;;
51665;Laerm;37751;52.408;12.536;2024-02-21T11:56:27;60.73;49.66;68.40;;
51665;Laerm;37751;52.408;12.536;2024-02-21T11:58:59;59.95;50.86;67.06;;
51665;Laerm;37751;52.408;12.536;2024-02-21T12:01:31;60.70;51.39;70.96;;
51665;Laerm;37751;52.408;12.536;2024-02-21T12:04:04;61.21;52.32;70.77;;
51665;Laerm;37751;52.408;12.536;2024-02-21T12:06:39;61.23;54.64;72.37;;
51665;Laerm;37751;52.408;12.536;2024-02-21T12:09:14;59.57;48.06;67.47;;
51665;Laerm;37751;52.408;12.536;2024-02-21T12:11:56;58.37;48.40;67.56;;
51665;Laerm;37751;52.408;12.536;2024-02-21T12:14:29;60.55;49.65;71.83;;
51665;Laerm;37751;52.408;12.536;2024-02-21T12:17:02;61.70;52.59;74.11;;
51665;Laerm;37751;52.408;12.536;2024-02-21T12:19:35;64.05;49.66;81.50;;
51665;Laerm;37751;52.408;12.536;2024-02-21T12:22:10;60.01;52.78;67.41;;
51665;Laerm;37751;52.408;12.536;2024-02-21T12:24:48;59.79;50.01;72.35;;
51665;Laerm;37751;52.408;12.536;2024-02-21T12:27:20;61.32;51.78;69.04;;
51665;Laerm;37751;52.408;12.536;2024-02-21T12:29:53;60.94;49.31;70.33;;
51665;Laerm;37751;52.408;12.536;2024-02-21T12:32:24;60.31;49.94;72.13;;
51665;Laerm;37751;52.408;12.536;2024-02-21T12:34:58;58.75;47.44;66.36;;
51665;Laerm;37751;52.408;12.536;2024-02-21T12:37:33;60.11;50.54;67.22;;
51665;Laerm;37751;52.408;12.536;2024-02-21T12:40:09;60.92;51.24;70.98;;
51665;Laerm;37751;52.408;12.536;2024-02-21T12:42:43;60.94;49.85;72.67;;
51665;Laerm;37751;52.408;12.536;2024-02-21T12:45:16;59.71;47.64;68.49;;
51665;Laerm;37751;52.408;12.536;2024-02-21T12:48:02;60.06;50.67;74.10;;
51665;Laerm;37751;52.408;12.536;2024-02-21T12:50:34;60.80;49.37;72.09;;
51665;Laerm;37751;52.408;12.536;2024-02-21T12:53:27;60.30;51.43;67.99;;
51665;Laerm;37751;52.408;12.536;2024-02-21T12:56:08;59.40;49.17;69.03;;
51665;Laerm;37751;52.408;12.536;2024-02-21T12:58:43;60.94;49.27;68.72;;
51665;Laerm;37751;52.408;12.536;2024-02-21T13:01:17;58.59;48.75;69.74;;
51665;Laerm;37751;52.408;12.536;2024-02-21T13:03:50;59.57;49.04;68.91;;
51665;Laerm;37751;52.408;12.536;2024-02-21T13:06:24;60.95;50.86;67.97;;
51665;Laerm;37751;52.408;12.536;2024-02-21T13:09:03;60.52;50.11;68.64;;
51665;Laerm;37751;52.408;12.536;2024-02-21T13:11:37;61.65;50.59;73.84;;
51665;Laerm;37751;52.408;12.536;2024-02-21T13:14:12;59.75;50.63;71.38;;
51665;Laerm;37751;52.408;12.536;2024-02-21T13:16:44;59.93;47.83;69.22;;
51665;Laerm;37751;52.408;12.536;2024-02-21T13:22:35;60.95;53.67;70.90;;
51665;Laerm;37751;52.408;12.536;2024-02-21T13:25:09;60.21;47.35;71.61;;
51665;Laerm;37751;52.408;12.536;2024-02-21T13:27:43;59.74;50.29;70.49;;
51665;Laerm;37751;52.408;12.536;2024-02-21T13:30:14;60.59;50.48;68.52;;
51665;Laerm;37751;52.408;12.536;2024-02-21T13:32:47;60.48;50.10;71.08;;
51665;Laerm;37751;52.408;12.536;2024-02-21T13:35:18;59.41;50.85;68.63;;
51665;Laerm;37751;52.408;12.536;2024-02-21T13:37:49;59.47;47.41;69.61;;
51665;Laerm;37751;52.408;12.536;2024-02-21T13:40:24;62.41;52.90;74.02;;
51665;Laerm;37751;52.408;12.536;2024-02-21T13:42:58;60.37;50.04;73.06;;
51665;Laerm;37751;52.408;12.536;2024-02-21T13:45:29;60.50;49.50;73.72;;
51665;Laerm;37751;52.408;12.536;2024-02-21T13:48:01;63.48;51.94;80.94;;
51665;Laerm;37751;52.408;12.536;2024-02-21T13:50:34;63.70;52.56;80.15;;
51665;Laerm;37751;52.408;12.536;2024-02-21T13:53:10;61.01;48.62;75.03;;
51665;Laerm;37751;52.408;12.536;2024-02-21T13:55:44;60.91;49.61;68.92;;
51665;Laerm;37751;52.408;12.536;2024-02-21T13:58:16;70.34;50.20;90.74;;
51665;Laerm;37751;52.408;12.536;2024-02-21T14:00:50;59.83;49.36;70.60;;
51665;Laerm;37751;52.408;12.536;2024-02-21T14:03:22;60.36;50.36;69.95;;
51665;Laerm;37751;52.408;12.536;2024-02-21T14:05:53;61.40;51.83;68.12;;
51665;Laerm;37751;52.408;12.536;2024-02-21T14:08:25;61.76;52.29;69.20;;